createdAt,value
2017-09-16T00:00:28.717Z,1006.64
2017-09-16T00:01:28.711Z,1006.65
2017-09-16T00:02:28.707Z,1006.63
2017-09-16T00:03:28.701Z,1006.58
2017-09-16T00:04:28.695Z,1006.57
2017-09-16T00:05:28.691Z,1006.63
2017-09-16T00:06:28.686Z,1006.60
2017-09-16T00:07:28.680Z,1006.61
2017-09-16T00:08:28.675Z,1006.63
2017-09-16T00:09:28.670Z,1006.59
2017-09-16T00:10:28.664Z,1006.64
2017-09-16T00:11:28.659Z,1006.58
2017-09-16T00:12:28.653Z,1006.61
2017-09-16T00:13:28.649Z,1006.63
2017-09-16T00:14:28.644Z,1006.60
2017-09-16T00:15:28.638Z,1006.54
2017-09-16T00:16:28.632Z,1006.61
2017-09-16T00:17:28.628Z,1006.59
2017-09-16T00:18:28.624Z,1006.58
2017-09-16T00:19:28.620Z,1006.59
2017-09-16T00:20:28.612Z,1006.52
2017-09-16T00:21:28.606Z,1006.56
2017-09-16T00:22:28.601Z,1006.59
2017-09-16T00:23:28.595Z,1006.53
2017-09-16T00:24:28.590Z,1006.55
2017-09-16T00:25:28.586Z,1006.52
2017-09-16T00:26:28.580Z,1006.51
2017-09-16T00:27:28.575Z,1006.48
2017-09-16T00:28:28.570Z,1006.53
2017-09-16T00:29:28.566Z,1006.47
2017-09-16T00:30:28.561Z,1006.51
2017-09-16T00:31:28.554Z,1006.51
2017-09-16T00:32:28.548Z,1006.48
2017-09-16T00:33:28.545Z,1006.50
2017-09-16T00:34:28.540Z,1006.48
2017-09-16T00:35:28.532Z,1006.42
2017-09-16T00:36:28.528Z,1006.50
2017-09-16T00:37:28.524Z,1006.47
2017-09-16T00:38:28.518Z,1006.46
2017-09-16T00:39:28.514Z,1006.48
2017-09-16T00:40:28.507Z,1006.45
2017-09-16T00:41:28.503Z,1006.45
2017-09-16T00:42:28.497Z,1006.46
2017-09-16T00:43:28.494Z,1006.46
2017-09-16T00:44:28.487Z,1006.45
2017-09-16T00:45:28.481Z,1006.47
2017-09-16T00:46:28.479Z,1006.51
2017-09-16T00:47:28.469Z,1006.42
2017-09-16T00:48:28.466Z,1006.50
2017-09-16T00:49:28.461Z,1006.45
2017-09-16T00:50:28.454Z,1006.44
2017-09-16T00:51:28.450Z,1006.39
2017-09-16T00:52:28.445Z,1006.40
2017-09-16T00:53:28.442Z,1006.43
2017-09-16T00:54:28.435Z,1006.36
2017-09-16T00:55:28.429Z,1006.41
2017-09-16T00:56:28.424Z,1006.44
2017-09-16T00:57:28.419Z,1006.43
2017-09-16T00:58:28.414Z,1006.39
2017-09-16T00:59:28.407Z,1006.39
2017-09-16T01:00:28.403Z,1006.37
2017-09-16T01:01:28.398Z,1006.39
2017-09-16T01:02:28.393Z,1006.36
2017-09-16T01:03:28.387Z,1006.39
2017-09-16T01:04:28.385Z,1006.34
2017-09-16T01:05:28.376Z,1006.37
2017-09-16T01:06:28.372Z,1006.38
2017-09-16T01:07:28.366Z,1006.37
2017-09-16T01:08:28.361Z,1006.36
2017-09-16T01:09:28.355Z,1006.36
2017-09-16T01:10:28.350Z,1006.37
2017-09-16T01:11:28.345Z,1006.39
2017-09-16T01:12:28.339Z,1006.41
2017-09-16T01:13:28.335Z,1006.41
2017-09-16T01:14:28.330Z,1006.41
2017-09-16T01:15:28.323Z,1006.42
2017-09-16T01:16:28.318Z,1006.36
2017-09-16T01:17:28.314Z,1006.41
2017-09-16T01:18:28.307Z,1006.39
2017-09-16T01:19:28.303Z,1006.41
2017-09-16T01:20:28.295Z,1006.39
2017-09-16T01:21:28.291Z,1006.43
2017-09-16T01:22:28.285Z,1006.43
2017-09-16T01:23:28.281Z,1006.40
2017-09-16T01:24:28.275Z,1006.41
2017-09-16T01:25:28.271Z,1006.37
2017-09-16T01:26:28.265Z,1006.33
2017-09-16T01:27:28.258Z,1006.35
2017-09-16T01:28:28.255Z,1006.32
2017-09-16T01:29:28.249Z,1006.34
2017-09-16T01:30:28.244Z,1006.33
2017-09-16T01:31:28.237Z,1006.34
2017-09-16T01:32:28.233Z,1006.34
2017-09-16T01:33:28.228Z,1006.30
2017-09-16T01:34:28.222Z,1006.34
2017-09-16T01:35:28.217Z,1006.32
2017-09-16T01:36:28.211Z,1006.31
2017-09-16T01:37:28.206Z,1006.28
2017-09-16T01:38:28.200Z,1006.33
2017-09-16T01:39:28.194Z,1006.31
2017-09-16T01:40:28.189Z,1006.35
2017-09-16T01:41:28.185Z,1006.30
2017-09-16T01:42:28.179Z,1006.27
2017-09-16T01:43:28.173Z,1006.22
2017-09-16T01:44:28.166Z,1006.30
2017-09-16T01:45:28.162Z,1006.29
2017-09-16T01:46:28.158Z,1006.29
2017-09-16T01:47:28.151Z,1006.29
2017-09-16T01:48:28.146Z,1006.35
2017-09-16T01:49:28.141Z,1006.27
2017-09-16T01:50:28.136Z,1006.29
2017-09-16T01:51:28.129Z,1006.24
2017-09-16T01:52:28.124Z,1006.24
2017-09-16T01:53:28.119Z,1006.30
2017-09-16T01:54:28.114Z,1006.27
2017-09-16T01:55:28.107Z,1006.28
2017-09-16T01:56:28.101Z,1006.27
2017-09-16T01:57:28.095Z,1006.23
2017-09-16T01:58:28.092Z,1006.25
2017-09-16T01:59:28.084Z,1006.27
2017-09-16T02:00:28.080Z,1006.27
2017-09-16T02:01:28.075Z,1006.30
2017-09-16T02:02:28.069Z,1006.31
2017-09-16T02:03:28.064Z,1006.28
2017-09-16T02:04:28.058Z,1006.27
2017-09-16T02:05:28.052Z,1006.22
2017-09-16T02:06:28.048Z,1006.28
2017-09-16T02:07:28.040Z,1006.29
2017-09-16T02:08:28.035Z,1006.25
2017-09-16T02:09:28.030Z,1006.30
2017-09-16T02:10:28.026Z,1006.29
2017-09-16T02:11:28.018Z,1006.27
2017-09-16T02:12:28.014Z,1006.30
2017-09-16T02:13:28.008Z,1006.34
2017-09-16T02:14:28.003Z,1006.39
2017-09-16T02:15:27.997Z,1006.36
2017-09-16T02:16:27.990Z,1006.30
2017-09-16T02:17:27.985Z,1006.32
2017-09-16T02:18:27.983Z,1006.30
2017-09-16T02:19:27.973Z,1006.27
2017-09-16T02:20:27.968Z,1006.27
2017-09-16T02:21:27.964Z,1006.26
2017-09-16T02:22:27.957Z,1006.23
2017-09-16T02:23:27.952Z,1006.21
2017-09-16T02:24:27.950Z,1006.21
2017-09-16T02:25:27.940Z,1006.27
2017-09-16T02:26:27.938Z,1006.25
2017-09-16T02:27:27.928Z,1006.27
2017-09-16T02:28:27.923Z,1006.24
2017-09-16T02:29:27.918Z,1006.22
2017-09-16T02:30:27.913Z,1006.22
2017-09-16T02:31:27.905Z,1006.19
2017-09-16T02:32:27.901Z,1006.28
2017-09-16T02:33:27.895Z,1006.23
2017-09-16T02:34:27.892Z,1006.23
2017-09-16T02:35:27.884Z,1006.22
2017-09-16T02:36:27.879Z,1006.20
2017-09-16T02:37:27.872Z,1006.23
2017-09-16T02:38:27.865Z,1006.24
2017-09-16T02:39:27.861Z,1006.19
2017-09-16T02:40:27.856Z,1006.23
2017-09-16T02:41:27.848Z,1006.20
2017-09-16T02:42:27.878Z,1006.25
2017-09-16T02:43:27.838Z,1006.28
2017-09-16T02:44:27.831Z,1006.28
2017-09-16T02:45:27.827Z,1006.27
2017-09-16T02:46:27.821Z,1006.26
2017-09-16T02:47:27.814Z,1006.26
2017-09-16T02:48:27.811Z,1006.29
2017-09-16T02:49:27.806Z,1006.20
2017-09-16T02:50:27.798Z,1006.20
2017-09-16T02:51:27.793Z,1006.26
2017-09-16T02:52:27.787Z,1006.21
2017-09-16T02:53:27.784Z,1006.24
2017-09-16T02:54:27.776Z,1006.22
2017-09-16T02:55:27.768Z,1006.20
2017-09-16T02:56:27.765Z,1006.16
2017-09-16T02:57:27.760Z,1006.18
2017-09-16T02:58:27.752Z,1006.19
2017-09-16T02:59:27.757Z,1006.20
2017-09-16T03:00:27.741Z,1006.20
2017-09-16T03:01:27.734Z,1006.18
2017-09-16T03:02:27.729Z,1006.20
2017-09-16T03:03:27.723Z,1006.15
2017-09-16T03:04:27.718Z,1006.22
2017-09-16T03:05:27.713Z,1006.18
2017-09-16T03:06:27.707Z,1006.17
2017-09-16T03:07:27.701Z,1006.19
2017-09-16T03:08:27.693Z,1006.25
2017-09-16T03:09:27.688Z,1006.23
2017-09-16T03:10:27.684Z,1006.24
2017-09-16T03:11:27.680Z,1006.23
2017-09-16T03:12:27.671Z,1006.26
2017-09-16T03:13:27.666Z,1006.25
2017-09-16T03:14:27.668Z,1006.22
2017-09-16T03:15:27.654Z,1006.22
2017-09-16T03:16:27.648Z,1006.20
2017-09-16T03:17:27.643Z,1006.16
2017-09-16T03:18:27.637Z,1006.21
2017-09-16T03:19:27.631Z,1006.22
2017-09-16T03:20:27.626Z,1006.16
2017-09-16T03:21:27.620Z,1006.16
2017-09-16T03:22:27.614Z,1006.18
2017-09-16T03:23:27.609Z,1006.19
2017-09-16T03:24:27.601Z,1006.21
2017-09-16T03:25:27.596Z,1006.19
2017-09-16T03:26:27.590Z,1006.22
2017-09-16T03:27:27.584Z,1006.20
2017-09-16T03:28:27.579Z,1006.23
2017-09-16T03:29:27.574Z,1006.21
2017-09-16T03:30:27.570Z,1006.19
2017-09-16T03:31:27.569Z,1006.13
2017-09-16T03:32:27.555Z,1006.14
2017-09-16T03:33:27.552Z,1006.19
2017-09-16T03:34:27.545Z,1006.17
2017-09-16T03:35:27.538Z,1006.16
2017-09-16T03:36:27.533Z,1006.14
2017-09-16T03:37:27.528Z,1006.16
2017-09-16T03:38:27.522Z,1006.14
2017-09-16T03:39:27.516Z,1006.16
2017-09-16T03:40:27.511Z,1006.15
2017-09-16T03:41:27.504Z,1006.12
2017-09-16T03:42:27.500Z,1006.12
2017-09-16T03:43:27.493Z,1006.15
2017-09-16T03:44:27.487Z,1006.11
2017-09-16T03:45:27.482Z,1006.09
2017-09-16T03:46:27.476Z,1006.09
2017-09-16T03:47:27.470Z,1006.14
2017-09-16T03:48:27.463Z,1006.10
2017-09-16T03:49:27.459Z,1006.11
2017-09-16T03:50:27.455Z,1006.11
2017-09-16T03:51:27.445Z,1006.15
2017-09-16T03:52:27.443Z,1006.09
2017-09-16T03:53:27.435Z,1006.16
2017-09-16T03:54:27.430Z,1006.12
2017-09-16T03:55:27.424Z,1006.13
2017-09-16T03:56:27.417Z,1006.10
2017-09-16T03:57:27.411Z,1006.10
2017-09-16T03:58:27.407Z,1006.13
2017-09-16T03:59:27.399Z,1006.13
2017-09-16T04:00:27.395Z,1006.13
2017-09-16T04:01:27.389Z,1006.07
2017-09-16T04:02:27.382Z,1006.13
2017-09-16T04:03:27.377Z,1006.07
2017-09-16T04:04:27.370Z,1006.09
2017-09-16T04:05:27.365Z,1006.03
2017-09-16T04:06:27.360Z,1006.07
2017-09-16T04:07:27.352Z,1006.04
2017-09-16T04:08:27.348Z,1006.04
2017-09-16T04:09:27.343Z,1006.03
2017-09-16T04:10:27.336Z,1006.06
2017-09-16T04:11:27.330Z,1006.06
2017-09-16T04:12:27.323Z,1006.08
2017-09-16T04:13:27.318Z,1006.05
2017-09-16T04:14:27.313Z,1006.06
2017-09-16T04:15:27.305Z,1006.02
2017-09-16T04:16:27.301Z,1006.03
2017-09-16T04:17:27.297Z,1006.05
2017-09-16T04:18:27.290Z,1006.02
2017-09-16T04:19:27.284Z,1006.06
2017-09-16T04:20:27.277Z,1006.08
2017-09-16T04:21:27.275Z,1006.07
2017-09-16T04:22:27.266Z,1006.05
2017-09-16T04:23:27.260Z,1006.09
2017-09-16T04:24:27.254Z,1006.09
2017-09-16T04:25:27.251Z,1006.08
2017-09-16T04:26:27.243Z,1006.12
2017-09-16T04:27:27.236Z,1006.10
2017-09-16T04:28:27.230Z,1006.11
2017-09-16T04:29:27.224Z,1006.10
2017-09-16T04:30:27.219Z,1006.12
2017-09-16T04:31:27.212Z,1006.10
2017-09-16T04:32:27.210Z,1006.10
2017-09-16T04:33:27.201Z,1006.10
2017-09-16T04:34:27.195Z,1006.12
2017-09-16T04:35:27.188Z,1006.15
2017-09-16T04:36:27.183Z,1006.15
2017-09-16T04:37:27.176Z,1006.13
2017-09-16T04:38:27.172Z,1006.12
2017-09-16T04:39:27.163Z,1006.11
2017-09-16T04:40:27.160Z,1006.09
2017-09-16T04:41:27.153Z,1006.19
2017-09-16T04:42:27.147Z,1006.22
2017-09-16T04:43:27.141Z,1006.18
2017-09-16T04:44:27.133Z,1006.21
2017-09-16T04:45:27.127Z,1006.21
2017-09-16T04:46:27.123Z,1006.18
2017-09-16T04:47:27.116Z,1006.18
2017-09-16T04:48:27.110Z,1006.13
2017-09-16T04:49:27.105Z,1006.09
2017-09-16T04:50:27.099Z,1006.13
2017-09-16T04:51:27.093Z,1006.09
2017-09-16T04:52:27.086Z,1006.08
2017-09-16T04:53:27.081Z,1006.06
2017-09-16T04:54:27.075Z,1006.06
2017-09-16T04:55:27.068Z,1006.10
2017-09-16T04:56:27.061Z,1006.09
2017-09-16T04:57:27.056Z,1006.09
2017-09-16T04:58:27.055Z,1006.07
2017-09-16T04:59:27.043Z,1006.08
2017-09-16T05:00:27.039Z,1006.10
2017-09-16T05:01:27.032Z,1006.12
2017-09-16T05:02:27.027Z,1006.11
2017-09-16T05:03:27.025Z,1006.05
2017-09-16T05:04:27.014Z,1006.07
2017-09-16T05:05:27.015Z,1006.11
2017-09-16T05:06:27.004Z,1006.07
2017-09-16T05:07:26.997Z,1006.09
2017-09-16T05:08:26.991Z,1006.09
2017-09-16T05:09:26.985Z,1006.12
2017-09-16T05:10:26.979Z,1006.10
2017-09-16T05:11:26.972Z,1006.12
2017-09-16T05:12:26.967Z,1006.12
2017-09-16T05:13:26.961Z,1006.10
2017-09-16T05:14:26.957Z,1006.13
2017-09-16T05:15:26.950Z,1006.16
2017-09-16T05:16:26.943Z,1006.15
2017-09-16T05:17:26.938Z,1006.13
2017-09-16T05:18:26.933Z,1006.11
2017-09-16T05:19:26.933Z,1006.11
2017-09-16T05:20:26.921Z,1006.10
2017-09-16T05:21:26.915Z,1006.06
2017-09-16T05:22:26.909Z,1006.10
2017-09-16T05:23:26.903Z,1006.18
2017-09-16T05:24:26.900Z,1006.12
2017-09-16T05:25:26.892Z,1006.12
2017-09-16T05:26:26.886Z,1006.16
2017-09-16T05:27:26.879Z,1006.12
2017-09-16T05:28:26.875Z,1006.17
2017-09-16T05:29:26.868Z,1006.18
2017-09-16T05:30:26.862Z,1006.17
2017-09-16T05:31:26.857Z,1006.20
2017-09-16T05:32:26.850Z,1006.24
2017-09-16T05:33:26.845Z,1006.19
2017-09-16T05:34:26.841Z,1006.23
2017-09-16T05:35:26.832Z,1006.23
2017-09-16T05:36:26.827Z,1006.24
2017-09-16T05:37:26.821Z,1006.32
2017-09-16T05:38:26.816Z,1006.37
2017-09-16T05:39:26.809Z,1006.41
2017-09-16T05:40:26.804Z,1006.40
2017-09-16T05:41:26.797Z,1006.32
2017-09-16T05:42:26.793Z,1006.31
2017-09-16T05:43:26.785Z,1006.34
2017-09-16T05:44:26.782Z,1006.43
2017-09-16T05:45:26.775Z,1006.41
2017-09-16T05:46:26.770Z,1006.49
2017-09-16T05:47:26.764Z,1006.49
2017-09-16T05:48:26.759Z,1006.58
2017-09-16T05:49:26.754Z,1006.61
2017-09-16T05:50:26.748Z,1006.64
2017-09-16T05:51:26.743Z,1006.65
2017-09-16T05:52:26.738Z,1006.65
2017-09-16T05:53:26.734Z,1006.62
2017-09-16T05:54:26.734Z,1006.49
2017-09-16T05:55:26.724Z,1006.41
2017-09-16T05:56:26.719Z,1006.55
2017-09-16T05:57:26.715Z,1006.69
2017-09-16T05:58:26.711Z,1006.63
2017-09-16T05:59:26.706Z,1006.67
2017-09-16T06:00:26.701Z,1006.68
2017-09-16T06:01:26.700Z,1006.65
2017-09-16T06:02:26.694Z,1006.61
2017-09-16T06:03:26.689Z,1006.76
2017-09-16T06:04:26.685Z,1006.82
2017-09-16T06:05:26.683Z,1006.82
2017-09-16T06:06:26.679Z,1006.76
2017-09-16T06:07:26.676Z,1006.85
2017-09-16T06:08:26.673Z,1006.94
2017-09-16T06:09:26.669Z,1006.95
2017-09-16T06:10:26.667Z,1006.95
2017-09-16T06:11:26.664Z,1006.92
2017-09-16T06:12:26.660Z,1006.98
2017-09-16T06:13:26.660Z,1007.00
2017-09-16T06:14:26.657Z,1007.00
2017-09-16T06:15:26.662Z,1006.97
2017-09-16T06:16:26.653Z,1007.01
2017-09-16T06:17:26.652Z,1007.04
2017-09-16T06:18:26.651Z,1007.10
2017-09-16T06:19:26.648Z,1007.06
2017-09-16T06:20:26.648Z,1006.98
2017-09-16T06:21:26.647Z,1006.92
2017-09-16T06:22:26.646Z,1007.00
2017-09-16T06:23:26.645Z,1007.02
2017-09-16T06:24:26.645Z,1007.07
2017-09-16T06:25:26.645Z,1007.14
2017-09-16T06:26:26.645Z,1007.20
2017-09-16T06:27:26.643Z,1007.30
2017-09-16T06:28:26.645Z,1007.24
2017-09-16T06:29:26.643Z,1007.19
2017-09-16T06:30:26.645Z,1007.13
2017-09-16T06:31:26.644Z,1006.83
2017-09-16T06:32:26.644Z,1006.70
2017-09-16T06:33:26.646Z,1006.66
2017-09-16T06:34:26.647Z,1006.68
2017-09-16T06:35:26.647Z,1007.17
2017-09-16T06:36:26.647Z,1007.20
2017-09-16T06:37:26.649Z,1007.26
2017-09-16T06:38:26.651Z,1007.31
2017-09-16T06:39:26.648Z,1007.36
2017-09-16T06:40:26.651Z,1007.41
2017-09-16T06:41:26.652Z,1007.49
2017-09-16T06:42:26.654Z,1007.47
2017-09-16T06:43:26.654Z,1007.54
2017-09-16T06:44:26.656Z,1007.52
2017-09-16T06:45:26.656Z,1007.52
2017-09-16T06:46:26.660Z,1007.59
2017-09-16T06:47:26.659Z,1007.61
2017-09-16T06:48:26.660Z,1007.64
2017-09-16T06:49:26.665Z,1007.64
2017-09-16T06:50:26.667Z,1007.70
2017-09-16T06:51:26.668Z,1007.76
2017-09-16T06:52:26.670Z,1007.79
2017-09-16T06:53:26.675Z,1007.77
2017-09-16T06:54:26.677Z,1007.79
2017-09-16T06:55:26.678Z,1007.82
2017-09-16T06:56:26.684Z,1007.84
2017-09-16T06:57:26.687Z,1007.88
2017-09-16T06:58:26.692Z,1007.87
2017-09-16T06:59:26.693Z,1007.87
2017-09-16T07:00:26.696Z,1007.90
2017-09-16T07:01:26.701Z,1007.89
2017-09-16T07:02:26.705Z,1007.91
2017-09-16T07:03:26.709Z,1007.94
2017-09-16T07:04:26.713Z,1007.99
2017-09-16T07:05:26.718Z,1007.96
2017-09-16T07:06:26.723Z,1007.96
2017-09-16T07:07:26.727Z,1007.94
2017-09-16T07:08:26.733Z,1007.98
2017-09-16T07:09:26.737Z,1007.92
2017-09-16T07:10:26.743Z,1007.94
2017-09-16T07:11:26.749Z,1008.01
2017-09-16T07:12:26.753Z,1008.00
2017-09-16T07:13:26.759Z,1008.06
2017-09-16T07:14:26.766Z,1008.06
2017-09-16T07:15:26.770Z,1008.04
2017-09-16T07:16:26.776Z,1008.13
2017-09-16T07:17:26.782Z,1008.16
2017-09-16T07:18:26.786Z,1007.37
2017-09-16T07:19:26.793Z,1007.33
2017-09-16T07:20:26.801Z,1007.31
2017-09-16T07:21:26.806Z,1007.33
2017-09-16T07:22:26.812Z,1007.36
2017-09-16T07:23:26.817Z,1007.37
2017-09-16T07:24:26.824Z,1007.38
2017-09-16T07:25:26.830Z,1007.38
2017-09-16T07:26:26.837Z,1007.38
2017-09-16T07:27:26.843Z,1007.40
2017-09-16T07:28:26.849Z,1007.39
2017-09-16T07:29:26.855Z,1007.35
2017-09-16T07:30:26.862Z,1007.39
2017-09-16T07:31:26.869Z,1007.34
2017-09-16T07:32:26.875Z,1007.37
2017-09-16T07:33:26.881Z,1007.39
2017-09-16T07:34:26.889Z,1007.38
2017-09-16T07:35:26.895Z,1007.40
2017-09-16T07:36:26.902Z,1007.41
2017-09-16T07:37:26.909Z,1007.45
2017-09-16T07:38:26.916Z,1007.41
2017-09-16T07:39:26.922Z,1007.43
2017-09-16T07:40:26.930Z,1007.43
2017-09-16T07:41:26.936Z,1007.44
2017-09-16T07:42:26.944Z,1007.47
2017-09-16T07:43:26.951Z,1007.49
2017-09-16T07:44:26.959Z,1007.53
2017-09-16T07:45:26.967Z,1007.54
2017-09-16T07:46:26.974Z,1007.60
2017-09-16T07:47:26.980Z,1007.66
2017-09-16T07:48:26.987Z,1007.60
2017-09-16T07:49:26.997Z,1007.61
2017-09-16T07:50:27.005Z,1007.61
2017-09-16T07:51:27.012Z,1007.60
2017-09-16T07:52:27.019Z,1007.59
2017-09-16T07:53:27.028Z,1007.72
2017-09-16T07:54:27.037Z,1007.69
2017-09-16T07:55:27.044Z,1007.70
2017-09-16T07:56:27.051Z,1007.77
2017-09-16T07:57:27.061Z,1007.77
2017-09-16T07:58:27.071Z,1007.78
2017-09-16T07:59:27.082Z,1007.85
2017-09-16T08:00:27.090Z,1007.85
2017-09-16T08:01:27.097Z,1007.86
2017-09-16T08:02:27.107Z,1007.82
2017-09-16T08:03:27.115Z,1007.68
2017-09-16T08:04:27.124Z,1007.63
2017-09-16T08:05:27.135Z,1007.69
2017-09-16T08:06:27.144Z,1007.57
2017-09-16T08:07:27.170Z,1007.52
2017-09-16T08:08:27.166Z,1007.55
2017-09-16T08:09:27.172Z,1007.61
2017-09-16T08:10:27.183Z,1007.67
2017-09-16T08:11:27.190Z,1007.65
2017-09-16T08:12:27.209Z,1007.62
2017-09-16T08:13:27.208Z,1007.66
2017-09-16T08:14:27.215Z,1007.67
2017-09-16T08:15:27.224Z,1007.73
2017-09-16T08:16:27.230Z,1007.83
2017-09-16T08:17:27.239Z,1007.88
2017-09-16T08:18:27.247Z,1007.94
2017-09-16T08:19:27.254Z,1007.91
2017-09-16T08:20:27.262Z,1007.97
2017-09-16T08:21:27.269Z,1008.05
2017-09-16T08:22:27.277Z,1007.82
2017-09-16T08:23:27.285Z,1007.99
2017-09-16T08:24:27.316Z,1007.72
2017-09-16T08:25:27.300Z,1007.79
2017-09-16T08:26:27.310Z,1007.84
2017-09-16T08:27:27.316Z,1007.82
2017-09-16T08:28:27.325Z,1007.80
2017-09-16T08:29:27.333Z,1007.76
2017-09-16T08:30:27.339Z,1007.75
2017-09-16T08:31:27.347Z,1007.74
2017-09-16T08:32:27.360Z,1007.72
2017-09-16T08:33:27.363Z,1007.91
2017-09-16T08:34:27.370Z,1007.91
2017-09-16T08:35:27.384Z,1007.78
2017-09-16T08:36:27.388Z,1007.87
2017-09-16T08:37:27.481Z,1008.08
2017-09-16T08:38:27.483Z,1008.08
2017-09-16T08:39:27.408Z,1008.13
2017-09-16T08:40:27.418Z,1008.20
2017-09-16T08:41:27.426Z,1008.18
2017-09-16T08:42:27.438Z,1008.12
2017-09-16T08:43:27.440Z,1008.20
2017-09-16T08:44:27.450Z,1008.21
2017-09-16T08:45:27.463Z,1008.22
2017-09-16T08:46:27.472Z,1008.27
2017-09-16T08:47:27.477Z,1008.26
2017-09-16T08:48:27.488Z,1008.27
2017-09-16T08:49:27.502Z,1008.23
2017-09-16T08:50:27.510Z,1008.16
2017-09-16T08:51:27.522Z,1008.08
2017-09-16T08:52:27.528Z,1008.13
2017-09-16T08:53:27.541Z,1008.11
2017-09-16T08:54:27.551Z,1008.12
2017-09-16T08:55:27.562Z,1008.10
2017-09-16T08:56:27.579Z,1008.09
2017-09-16T08:57:27.585Z,1008.15
2017-09-16T08:58:27.598Z,1008.16
2017-09-16T08:59:27.609Z,1008.09
2017-09-16T09:00:27.621Z,1008.13
2017-09-16T09:01:27.635Z,1008.14
2017-09-16T09:02:27.646Z,1008.10
2017-09-16T09:03:27.659Z,1007.72
2017-09-16T09:04:27.673Z,1008.09
2017-09-16T09:05:27.684Z,1007.95
2017-09-16T09:06:27.696Z,1007.82
2017-09-16T09:07:27.709Z,1007.90
2017-09-16T09:08:27.721Z,1008.10
2017-09-16T09:09:27.735Z,1008.07
2017-09-16T09:10:27.749Z,1008.13
2017-09-16T09:11:27.760Z,1008.13
2017-09-16T09:12:27.773Z,1008.11
2017-09-16T09:13:27.786Z,1008.23
2017-09-16T09:14:27.800Z,1007.81
2017-09-16T09:15:27.812Z,1008.14
2017-09-16T09:16:27.826Z,1007.69
2017-09-16T09:17:27.840Z,1007.65
2017-09-16T09:18:27.851Z,1008.13
2017-09-16T09:19:27.865Z,1007.70
2017-09-16T09:20:27.891Z,1007.96
2017-09-16T09:21:27.891Z,1008.04
2017-09-16T09:22:27.904Z,1008.18
2017-09-16T09:23:27.916Z,1008.29
2017-09-16T09:24:27.929Z,1008.35
2017-09-16T09:25:27.942Z,1007.70
2017-09-16T09:26:27.956Z,1008.32
2017-09-16T09:27:27.967Z,1008.49
2017-09-16T09:28:27.979Z,1007.76
2017-09-16T09:29:27.992Z,1008.40
2017-09-16T09:30:28.007Z,1007.71
2017-09-16T09:31:28.017Z,1007.72
2017-09-16T09:32:28.030Z,1007.60
2017-09-16T09:33:28.043Z,1007.61
2017-09-16T09:34:28.057Z,1007.57
2017-09-16T09:35:28.065Z,1007.55
2017-09-16T09:36:28.077Z,1007.74
2017-09-16T09:37:28.089Z,1008.41
2017-09-16T09:38:28.101Z,1007.64
2017-09-16T09:39:28.110Z,1007.59
2017-09-16T09:40:28.121Z,1008.43
2017-09-16T09:41:28.131Z,1008.46
2017-09-16T09:42:28.142Z,1008.50
2017-09-16T09:43:28.152Z,1007.67
2017-09-16T09:44:28.162Z,1008.06
2017-09-16T09:45:28.172Z,1007.94
2017-09-16T09:46:28.183Z,1008.11
2017-09-16T09:47:28.192Z,1008.08
2017-09-16T09:48:28.203Z,1007.76
2017-09-16T09:49:28.220Z,1008.01
2017-09-16T09:50:28.225Z,1008.05
2017-09-16T09:51:28.235Z,1008.07
2017-09-16T09:52:28.245Z,1008.09
2017-09-16T09:53:28.257Z,1008.04
2017-09-16T09:54:28.268Z,1008.13
2017-09-16T09:55:28.278Z,1008.04
2017-09-16T09:56:28.293Z,1007.89
2017-09-16T09:57:28.306Z,1007.65
2017-09-16T09:58:28.318Z,1007.62
2017-09-16T09:59:28.328Z,1007.56
2017-09-16T10:00:28.342Z,1007.50
2017-09-16T10:01:28.356Z,1007.53
2017-09-16T10:02:28.368Z,1007.49
2017-09-16T10:03:28.380Z,1007.55
2017-09-16T10:04:28.392Z,1007.49
2017-09-16T10:05:28.562Z,1007.40
2017-09-16T10:06:28.416Z,1007.45
2017-09-16T10:07:28.426Z,1007.40
2017-09-16T10:08:28.438Z,1007.36
2017-09-16T10:09:28.448Z,1007.35
2017-09-16T10:10:28.460Z,1007.37
2017-09-16T10:11:28.467Z,1007.66
2017-09-16T10:12:28.477Z,1007.72
2017-09-16T10:13:28.486Z,1007.37
2017-09-16T10:14:28.496Z,1007.38
2017-09-16T10:15:28.504Z,1007.36
2017-09-16T10:16:28.520Z,1007.38
2017-09-16T10:17:28.521Z,1007.41
2017-09-16T10:18:28.539Z,1007.34
2017-09-16T10:19:28.536Z,1007.47
2017-09-16T10:20:28.545Z,1007.66
2017-09-16T10:21:28.553Z,1007.64
2017-09-16T10:22:28.562Z,1007.58
2017-09-16T10:24:28.579Z,1007.75
2017-09-16T10:25:28.587Z,1007.73
2017-09-16T10:26:28.595Z,1007.65
2017-09-16T10:27:28.604Z,1007.43
2017-09-16T10:28:28.614Z,1007.46
2017-09-16T10:29:28.622Z,1007.73
2017-09-16T10:30:28.632Z,1007.69
2017-09-16T10:31:28.642Z,1007.73
2017-09-16T10:32:28.651Z,1007.76
2017-09-16T10:33:28.662Z,1007.69
2017-09-16T10:34:28.673Z,1007.76
2017-09-16T10:35:28.682Z,1007.78
2017-09-16T10:36:28.694Z,1007.44
2017-09-16T10:37:28.711Z,1007.47
2017-09-16T10:38:28.718Z,1007.44
2017-09-16T10:39:28.728Z,1007.44
2017-09-16T10:40:28.739Z,1007.44
2017-09-16T10:41:28.752Z,1007.36
2017-09-16T10:42:28.762Z,1007.41
2017-09-16T10:43:28.773Z,1007.33
2017-09-16T10:44:28.785Z,1007.34
2017-09-16T10:45:28.800Z,1007.30
2017-09-16T10:46:28.805Z,1007.26
2017-09-16T10:47:28.814Z,1007.30
2017-09-16T10:48:28.825Z,1007.31
2017-09-16T10:49:28.835Z,1007.28
2017-09-16T10:50:28.846Z,1007.33
2017-09-16T10:51:28.851Z,1007.26
2017-09-16T10:52:28.865Z,1007.24
2017-09-16T10:53:28.873Z,1007.21
2017-09-16T10:54:28.877Z,1007.26
2017-09-16T10:55:28.884Z,1007.25
2017-09-16T10:56:28.890Z,1007.21
2017-09-16T10:57:28.898Z,1007.17
2017-09-16T10:58:28.906Z,1007.17
2017-09-16T10:59:28.912Z,1007.15
2017-09-16T11:00:28.917Z,1007.17
2017-09-16T11:01:28.926Z,1007.18
2017-09-16T11:02:28.931Z,1007.17
2017-09-16T11:03:28.936Z,1007.40
2017-09-16T11:04:28.941Z,1007.40
2017-09-16T11:05:28.947Z,1007.37
2017-09-16T11:06:28.954Z,1007.20
2017-09-16T11:07:28.967Z,1007.13
2017-09-16T11:08:28.967Z,1007.15
2017-09-16T11:09:28.974Z,1007.10
2017-09-16T11:10:28.980Z,1007.10
2017-09-16T11:11:28.983Z,1007.13
2017-09-16T11:12:28.991Z,1007.16
2017-09-16T11:13:28.997Z,1007.11
2017-09-16T11:14:29.003Z,1007.16
2017-09-16T11:15:29.010Z,1007.09
2017-09-16T11:16:29.016Z,1007.08
2017-09-16T11:17:29.024Z,1007.07
2017-09-16T11:18:29.026Z,1007.16
2017-09-16T11:19:29.033Z,1007.15
2017-09-16T11:20:29.037Z,1007.11
2017-09-16T11:21:29.043Z,1007.06
2017-09-16T11:22:29.050Z,1007.03
2017-09-16T11:23:29.052Z,1007.08
2017-09-16T11:24:29.060Z,1007.00
2017-09-16T11:25:29.065Z,1007.08
2017-09-16T11:26:29.072Z,1007.09
2017-09-16T11:27:29.074Z,1007.14
2017-09-16T11:28:29.079Z,1007.12
2017-09-16T11:29:29.084Z,1007.12
2017-09-16T11:30:29.092Z,1007.01
2017-09-16T11:31:29.093Z,1007.07
2017-09-16T11:32:29.098Z,1007.08
2017-09-16T11:33:29.102Z,1007.06
2017-09-16T11:34:29.107Z,1007.05
2017-09-16T11:35:29.111Z,1007.04
2017-09-16T11:36:29.114Z,1007.08
2017-09-16T11:37:29.121Z,1007.10
2017-09-16T11:38:29.125Z,1007.09
2017-09-16T11:39:29.128Z,1007.06
2017-09-16T11:40:29.133Z,1007.06
2017-09-16T11:41:29.163Z,1007.08
2017-09-16T11:42:29.141Z,1007.03
2017-09-16T11:43:29.147Z,1007.02
2017-09-16T11:44:29.148Z,1007.07
2017-09-16T11:45:29.152Z,1006.99
2017-09-16T11:46:29.158Z,1006.96
2017-09-16T11:47:29.161Z,1007.05
2017-09-16T11:48:29.166Z,1007.00
2017-09-16T11:49:29.169Z,1006.94
2017-09-16T11:50:29.174Z,1006.95
2017-09-16T11:51:29.177Z,1006.95
2017-09-16T11:52:29.181Z,1006.97
2017-09-16T11:53:29.185Z,1006.99
2017-09-16T11:54:29.189Z,1007.00
2017-09-16T11:55:29.192Z,1006.95
2017-09-16T11:56:29.196Z,1006.90
2017-09-16T11:57:29.201Z,1006.92
2017-09-16T11:58:29.205Z,1006.99
2017-09-16T11:59:29.207Z,1006.93
2017-09-16T12:00:29.212Z,1006.94
2017-09-16T12:01:29.215Z,1006.96
2017-09-16T12:02:29.219Z,1006.96
2017-09-16T12:03:29.223Z,1006.93
2017-09-16T12:04:29.226Z,1006.93
2017-09-16T12:05:29.231Z,1006.89
2017-09-16T12:06:29.234Z,1006.95